createdAt,value
2023-03-17T00:01:20.114Z,99889.00
2023-03-17T00:03:48.267Z,99882.00
2023-03-17T00:06:17.042Z,99885.00
2023-03-17T00:08:46.412Z,99868.00
2023-03-17T00:11:14.986Z,99880.00
2023-03-17T00:13:43.828Z,99877.00
2023-03-17T00:16:32.662Z,99870.00
2023-03-17T00:19:00.460Z,99873.00
2023-03-17T00:21:33.592Z,99878.00
2023-03-17T00:24:01.635Z,99869.00
2023-03-17T00:26:29.332Z,99864.00
2023-03-17T00:28:58.289Z,99864.00
2023-03-17T00:31:26.223Z,99871.00
2023-03-17T00:33:54.200Z,99870.00
2023-03-17T00:36:26.603Z,99865.00
2023-03-17T00:38:55.909Z,99858.00
2023-03-17T00:41:27.405Z,99858.00
2023-03-17T00:43:55.554Z,99867.00
2023-03-17T00:46:23.594Z,99862.00
2023-03-17T00:48:51.340Z,99858.00
2023-03-17T00:51:19.003Z,99853.00
2023-03-17T00:53:48.553Z,99847.00
2023-03-17T00:56:17.486Z,99838.00
2023-03-17T00:58:45.349Z,99850.00
2023-03-17T01:01:13.062Z,99842.00
2023-03-17T01:03:41.592Z,99842.00
2023-03-17T01:06:11.187Z,99841.00
2023-03-17T01:08:39.763Z,99834.00
2023-03-17T01:11:16.392Z,99832.00
2023-03-17T01:13:44.212Z,99830.00
2023-03-17T01:16:12.895Z,99829.00
2023-03-17T01:18:41.071Z,99825.00
2023-03-17T01:21:08.907Z,99818.00
2023-03-17T01:23:36.822Z,99810.00
2023-03-17T01:26:05.260Z,99812.00
2023-03-17T01:28:33.034Z,99812.00
2023-03-17T01:31:00.778Z,99817.00
2023-03-17T01:33:32.151Z,99802.00
2023-03-17T01:36:00.373Z,99811.00
2023-03-17T01:38:28.092Z,99802.00
2023-03-17T01:40:56.101Z,99817.00
2023-03-17T01:43:30.902Z,99808.00
2023-03-17T01:46:17.483Z,99796.00
2023-03-17T01:48:45.850Z,99787.00
2023-03-17T01:51:19.295Z,99791.00
2023-03-17T01:53:47.669Z,99796.00
2023-03-17T01:56:15.823Z,99788.00
2023-03-17T01:58:44.411Z,99782.00
2023-03-17T04:46:36.260Z,99751.00
2023-03-17T04:49:04.151Z,99744.00
2023-03-17T04:51:31.978Z,99746.00
2023-03-17T04:54:00.771Z,99731.00
2023-03-17T04:56:31.168Z,99732.00
2023-03-17T04:58:59.394Z,99725.00
2023-03-17T05:05:08.777Z,99689.00
2023-03-17T05:07:36.756Z,99701.00
2023-03-17T05:10:05.702Z,99706.00
2023-03-17T05:12:33.285Z,99714.00
2023-03-17T05:15:00.931Z,99711.00
2023-03-17T05:17:28.868Z,99717.00
2023-03-17T05:19:56.696Z,99717.00
2023-03-17T05:22:24.476Z,99727.00
2023-03-17T05:24:52.207Z,99719.00
2023-03-17T05:27:19.888Z,99715.00
2023-03-17T05:29:47.828Z,99713.00
2023-03-17T05:32:15.613Z,99718.00
2023-03-17T05:34:43.407Z,99708.00
2023-03-17T05:37:11.542Z,99709.00
2023-03-17T05:39:39.219Z,99714.00
2023-03-17T05:42:06.956Z,99711.00
2023-03-17T05:44:35.025Z,99711.00
2023-03-17T05:47:03.053Z,99711.00
2023-03-17T05:49:31.178Z,99710.00
2023-03-17T05:51:59.112Z,99697.00
2023-03-17T05:54:26.752Z,99687.00
2023-03-17T05:56:54.467Z,99686.00
2023-03-17T05:59:22.597Z,99697.00
2023-03-17T06:01:50.546Z,99712.00
2023-03-17T06:04:18.336Z,99713.00
2023-03-17T06:06:46.680Z,99725.00
2023-03-17T06:09:15.391Z,99719.00
2023-03-17T06:11:44.164Z,99713.00
2023-03-17T06:14:12.398Z,99697.00
2023-03-17T06:16:40.026Z,99687.00
2023-03-17T06:19:07.765Z,99690.00
2023-03-17T06:21:35.538Z,99683.00
2023-03-17T06:24:03.286Z,99686.00
2023-03-17T06:26:31.163Z,99685.00
2023-03-17T06:28:58.845Z,99688.00
2023-03-17T06:31:26.771Z,99680.00
2023-03-17T06:33:54.588Z,99682.00
2023-03-17T06:36:22.533Z,99690.00
2023-03-17T06:38:50.595Z,99690.00
2023-03-17T06:41:19.174Z,99695.00
2023-03-17T06:43:47.403Z,99692.00
2023-03-17T06:46:15.238Z,99692.00
2023-03-17T06:48:43.806Z,99701.00
2023-03-17T06:51:11.820Z,99701.00
2023-03-17T06:53:39.880Z,99688.00
2023-03-17T06:56:12.545Z,99693.00
2023-03-17T06:58:45.817Z,99681.00
2023-03-17T07:01:14.793Z,99693.00
2023-03-17T07:03:42.605Z,99688.00
2023-03-17T07:06:10.380Z,99692.00
2023-03-17T07:08:39.309Z,99698.00
2023-03-17T07:11:07.232Z,99702.00
2023-03-17T07:13:37.373Z,99700.00
2023-03-17T07:16:05.335Z,99699.00
2023-03-17T07:18:33.940Z,99702.00
2023-03-17T07:21:04.921Z,99701.00
2023-03-17T07:23:32.519Z,99699.00
2023-03-17T07:26:00.231Z,99711.00
2023-03-17T07:28:28.069Z,99710.00
2023-03-17T07:30:58.174Z,99707.00
2023-03-17T07:33:26.072Z,99706.00
2023-03-17T07:35:54.305Z,99702.00
2023-03-17T07:38:22.174Z,99698.00
2023-03-17T07:40:49.683Z,99693.00
2023-03-17T07:43:17.825Z,99695.00
2023-03-17T07:45:45.838Z,99691.00
2023-03-17T07:48:13.664Z,99687.00
2023-03-17T07:50:42.604Z,99692.00
2023-03-17T07:53:10.381Z,99688.00
2023-03-17T07:55:39.252Z,99688.00
2023-03-17T07:58:07.907Z,99682.00
2023-03-17T08:00:36.171Z,99684.00
2023-03-17T08:03:10.373Z,99675.00
2023-03-17T08:05:38.576Z,99665.00
2023-03-17T08:08:06.804Z,99672.00
2023-03-17T08:10:35.415Z,99666.00
2023-03-17T08:13:03.485Z,99666.00
2023-03-17T08:15:31.435Z,99672.00
2023-03-17T08:17:59.878Z,99672.00
2023-03-17T08:20:27.826Z,99671.00
2023-03-17T08:22:56.263Z,99670.00
2023-03-17T08:25:24.939Z,99672.00
2023-03-17T08:27:52.987Z,99674.00
2023-03-17T08:30:21.099Z,99672.00
2023-03-17T08:32:49.259Z,99672.00
2023-03-17T08:35:17.362Z,99665.00
2023-03-17T08:37:48.070Z,99648.00
2023-03-17T08:40:20.217Z,99652.00
2023-03-17T08:42:48.830Z,99641.00
2023-03-17T08:45:16.701Z,99642.00
2023-03-17T08:47:44.840Z,99654.00
2023-03-17T08:50:15.999Z,99652.00
2023-03-17T08:52:43.873Z,99651.00
2023-03-17T08:55:12.410Z,99666.00
2023-03-17T08:57:40.189Z,99666.00
2023-03-17T09:00:11.219Z,99670.00
2023-03-17T09:02:39.383Z,99667.00
2023-03-17T09:05:07.400Z,99659.00
2023-03-17T09:07:35.169Z,99658.00
2023-03-17T09:10:04.229Z,99648.00
2023-03-17T09:12:34.243Z,99650.00
2023-03-17T09:15:02.146Z,99649.00
2023-03-17T09:17:29.919Z,99653.00
2023-03-17T09:19:57.801Z,99649.00
2023-03-17T09:22:25.668Z,99649.00
2023-03-17T09:24:53.586Z,99651.00
2023-03-17T09:27:21.169Z,99642.00
2023-03-17T09:29:48.945Z,99647.00
2023-03-17T09:32:16.665Z,99647.00
2023-03-17T09:34:44.457Z,99649.00
2023-03-17T09:37:12.288Z,99650.00
2023-03-17T09:39:39.809Z,99645.00
2023-03-17T09:42:22.582Z,99640.00
2023-03-17T09:44:53.728Z,99638.00
2023-03-17T09:47:30.604Z,99627.00
2023-03-17T09:49:59.242Z,99636.00
2023-03-17T09:52:30.725Z,99630.00
2023-03-17T09:54:58.413Z,99626.00
2023-03-17T09:57:29.155Z,99624.00
2023-03-17T10:00:06.987Z,99626.00
2023-03-17T10:02:37.630Z,99619.00
2023-03-17T10:05:19.826Z,99618.00
2023-03-17T10:07:50.702Z,99617.00
2023-03-17T10:10:24.450Z,99615.00
2023-03-17T10:12:58.064Z,99618.00
2023-03-17T10:15:28.109Z,99616.00
2023-03-17T10:17:55.939Z,99622.00
2023-03-17T10:20:23.782Z,99625.00
2023-03-17T10:22:53.287Z,99630.00
2023-03-17T10:25:22.639Z,99631.00
2023-03-17T10:27:56.130Z,99623.00
2023-03-17T10:30:24.172Z,99628.00
2023-03-17T10:32:52.517Z,99626.00
2023-03-17T10:35:20.387Z,99626.00
2023-03-17T10:37:48.486Z,99630.00
2023-03-17T10:40:27.174Z,99629.00
2023-03-17T10:42:56.785Z,99628.00
2023-03-17T10:45:28.833Z,99619.00
2023-03-17T10:47:57.618Z,99624.00
2023-03-17T10:50:30.727Z,99617.00
2023-03-17T10:53:04.607Z,99615.00
2023-03-17T10:55:38.152Z,99611.00
2023-03-17T10:58:07.086Z,99608.00
2023-03-17T11:00:35.739Z,99609.00
2023-03-17T11:03:19.293Z,99608.00
2023-03-17T11:05:54.868Z,99602.00
2023-03-17T11:08:23.528Z,99601.00
2023-03-17T11:10:54.945Z,99598.00
2023-03-17T11:13:23.239Z,99595.00
2023-03-17T11:15:52.906Z,99588.00
2023-03-17T11:18:24.463Z,99590.00
2023-03-17T11:21:21.106Z,99582.00
2023-03-17T11:23:50.275Z,99580.00
2023-03-17T11:26:21.552Z,99576.00
2023-03-17T11:29:12.540Z,99572.00
2023-03-17T11:31:47.059Z,99576.00
2023-03-17T11:34:20.152Z,99570.00
2023-03-17T11:36:47.857Z,99572.00
2023-03-17T11:39:28.756Z,99579.00
2023-03-17T11:42:02.926Z,99582.00
2023-03-17T11:44:47.577Z,99572.00
2023-03-17T11:47:37.884Z,99581.00
2023-03-17T11:50:13.473Z,99573.00
2023-03-17T11:52:50.327Z,99583.00
2023-03-17T11:55:20.999Z,99586.00
2023-03-17T11:57:50.422Z,99581.00
2023-03-17T12:00:23.901Z,99580.00
2023-03-17T12:02:58.374Z,99572.00
2023-03-17T12:05:26.737Z,99576.00
2023-03-17T12:08:06.319Z,99577.00
2023-03-17T12:10:36.643Z,99570.00
2023-03-17T12:13:24.668Z,99574.00
2023-03-17T12:15:58.415Z,99571.00
2023-03-17T12:18:36.639Z,99569.00
2023-03-17T12:21:09.831Z,99565.00
2023-03-17T12:23:45.554Z,99569.00
2023-03-17T12:26:14.610Z,99562.00
2023-03-17T12:29:01.230Z,99568.00
2023-03-17T12:31:32.480Z,99560.00
2023-03-17T12:34:05.493Z,99571.00
2023-03-17T12:36:33.606Z,99556.00
2023-03-17T12:39:09.591Z,99551.00
2023-03-17T12:41:39.980Z,99553.00
2023-03-17T12:44:12.696Z,99550.00
2023-03-17T12:46:52.590Z,99560.00
2023-03-17T12:49:38.809Z,99553.00
2023-03-17T12:52:10.416Z,99550.00
2023-03-17T12:54:38.284Z,99551.00
2023-03-17T12:57:06.868Z,99544.00
2023-03-17T12:59:36.622Z,99542.00
2023-03-17T13:02:18.528Z,99532.00
2023-03-17T13:04:53.841Z,99532.00
2023-03-17T13:07:25.880Z,99540.00
2023-03-17T13:10:11.725Z,99539.00
2023-03-17T13:12:42.867Z,99536.00
2023-03-17T13:15:24.327Z,99538.00
2023-03-17T13:17:52.837Z,99535.00
2023-03-17T13:20:20.857Z,99533.00
2023-03-17T13:23:02.349Z,99535.00
2023-03-17T13:25:32.784Z,99530.00
2023-03-17T13:28:16.509Z,99530.00
2023-03-17T13:30:52.604Z,99538.00
2023-03-17T13:33:24.430Z,99527.00
2023-03-17T13:35:54.711Z,99531.00
2023-03-17T13:38:35.738Z,99537.00
2023-03-17T13:41:06.613Z,99542.00
2023-03-17T13:43:37.303Z,99543.00
2023-03-17T13:46:20.053Z,99530.00
2023-03-17T13:48:48.083Z,99531.00
2023-03-17T13:51:23.707Z,99530.00
2023-03-17T13:53:59.195Z,99526.00
2023-03-17T13:56:42.286Z,99533.00
2023-03-17T13:59:19.872Z,99536.00
2023-03-17T14:02:22.991Z,99524.00
2023-03-17T14:04:52.959Z,99525.00
2023-03-17T14:07:23.320Z,99535.00
2023-03-17T14:09:52.471Z,99534.00
2023-03-17T14:12:23.482Z,99527.00
2023-03-17T14:15:07.959Z,99526.00
2023-03-17T14:17:45.490Z,99524.00
2023-03-17T14:20:13.173Z,99515.00
2023-03-17T14:22:44.424Z,99518.00
2023-03-17T14:25:20.277Z,99516.00
2023-03-17T14:27:55.346Z,99509.00
2023-03-17T14:30:24.402Z,99508.00
2023-03-17T14:33:01.744Z,99509.00
2023-03-17T14:35:37.716Z,99507.00
2023-03-17T14:38:14.657Z,99506.00
2023-03-17T14:40:42.477Z,99491.00
2023-03-17T14:43:10.734Z,99501.00
2023-03-17T14:45:47.946Z,99496.00
2023-03-17T14:48:16.799Z,99497.00
2023-03-17T14:50:55.042Z,99497.00
2023-03-17T14:53:24.240Z,99500.00
2023-03-17T14:55:52.155Z,99495.00
2023-03-17T14:58:20.506Z,99488.00
2023-03-17T15:00:52.159Z,99484.00
2023-03-17T15:03:21.435Z,99484.00
2023-03-17T15:05:49.484Z,99488.00
2023-03-17T15:08:35.781Z,99482.00
2023-03-17T15:11:04.560Z,99475.00
2023-03-17T15:13:36.625Z,99469.00
2023-03-17T15:16:12.748Z,99474.00
2023-03-17T15:18:40.460Z,99472.00
2023-03-17T15:21:21.913Z,99469.00
2023-03-17T15:23:49.996Z,99471.00
2023-03-17T15:26:25.039Z,99468.00
2023-03-17T15:28:52.973Z,99476.00
2023-03-17T15:31:23.807Z,99469.00
2023-03-17T15:33:51.383Z,99474.00
2023-03-17T15:36:31.855Z,99463.00
2023-03-17T15:39:01.003Z,99468.00
2023-03-17T15:41:28.652Z,99466.00
2023-03-17T15:43:57.088Z,99459.00
2023-03-17T15:46:25.607Z,99461.00
2023-03-17T15:48:53.357Z,99456.00
2023-03-17T15:51:21.387Z,99461.00
2023-03-17T15:53:49.412Z,99456.00
2023-03-17T15:56:19.243Z,99457.00
2023-03-17T15:58:51.697Z,99446.00
2023-03-17T16:01:19.995Z,99455.00
2023-03-17T16:03:48.090Z,99455.00
2023-03-17T16:06:21.525Z,99456.00
2023-03-17T16:08:49.672Z,99446.00
2023-03-17T16:11:23.037Z,99450.00
2023-03-17T16:13:50.878Z,99439.00
2023-03-17T16:16:21.835Z,99439.00
2023-03-17T16:18:50.509Z,99446.00
2023-03-17T16:21:19.399Z,99447.00
2023-03-17T16:23:48.208Z,99454.00
2023-03-17T16:26:17.113Z,99450.00
2023-03-17T16:28:45.779Z,99455.00
2023-03-17T16:31:18.406Z,99447.00
2023-03-17T16:33:46.572Z,99444.00
2023-03-17T16:36:16.196Z,99447.00
2023-03-17T16:38:44.294Z,99443.00
2023-03-17T16:41:19.312Z,99451.00
2023-03-17T16:43:51.263Z,99453.00
2023-03-17T16:46:19.875Z,99446.00
2023-03-17T16:48:48.614Z,99451.00
2023-03-17T16:51:16.719Z,99444.00
2023-03-17T16:53:44.603Z,99442.00
2023-03-17T16:56:16.757Z,99446.00
2023-03-17T16:58:45.000Z,99453.00
2023-03-17T17:01:14.882Z,99443.00
2023-03-17T17:03:43.056Z,99448.00
2023-03-17T17:06:11.312Z,99453.00
2023-03-17T17:08:38.986Z,99449.00
2023-03-17T17:11:06.870Z,99447.00
2023-03-17T17:13:34.681Z,99449.00
2023-03-17T17:16:02.200Z,99453.00
2023-03-17T17:18:29.938Z,99453.00
2023-03-17T17:20:57.683Z,99455.00
2023-03-17T17:23:26.443Z,99451.00
2023-03-17T17:25:54.542Z,99446.00
2023-03-17T17:28:23.190Z,99455.00
2023-03-17T17:30:51.384Z,99458.00
2023-03-17T17:33:19.721Z,99454.00
2023-03-17T17:35:48.681Z,99453.00
2023-03-17T17:38:18.149Z,99463.00
2023-03-17T17:40:45.799Z,99447.00
2023-03-17T17:43:13.524Z,99431.00
2023-03-17T17:45:41.560Z,99453.00
2023-03-17T17:48:10.602Z,99455.00
2023-03-17T17:50:38.511Z,99448.00
2023-03-17T17:53:09.017Z,99465.00
2023-03-17T17:55:36.895Z,99467.00
2023-03-17T17:58:04.776Z,99461.00
2023-03-17T18:00:32.890Z,99449.00
2023-03-17T18:03:00.946Z,99465.00
2023-03-17T18:05:28.767Z,99453.00
2023-03-17T18:07:56.689Z,99467.00
2023-03-17T18:10:25.943Z,99471.00
2023-03-17T18:12:54.027Z,99488.00
2023-03-17T18:15:22.165Z,99471.00
2023-03-17T18:17:50.217Z,99486.00
2023-03-17T18:20:19.104Z,99493.00
2023-03-17T18:22:49.866Z,99495.00
2023-03-17T18:25:17.569Z,99505.00
2023-03-17T18:27:45.487Z,99503.00
2023-03-17T18:30:15.288Z,99515.00
2023-03-17T18:32:43.166Z,99513.00
2023-03-17T18:35:12.558Z,99505.00
2023-03-17T18:37:40.645Z,99505.00
2023-03-17T18:40:15.063Z,99501.00
2023-03-17T18:42:45.017Z,99497.00
2023-03-17T18:45:12.990Z,99489.00
2023-03-17T18:47:42.272Z,99496.00
2023-03-17T18:50:11.007Z,99491.00
2023-03-17T18:52:39.629Z,99486.00
2023-03-17T18:55:07.567Z,99483.00
2023-03-17T18:57:35.350Z,99477.00
2023-03-17T19:00:05.396Z,99491.00
2023-03-17T19:02:33.623Z,99478.00
2023-03-17T19:05:01.869Z,99478.00
2023-03-17T19:07:29.650Z,99480.00
2023-03-17T19:09:57.417Z,99474.00
2023-03-17T19:12:25.578Z,99474.00
2023-03-17T19:14:53.425Z,99477.00
2023-03-17T19:17:21.279Z,99473.00
2023-03-17T19:19:50.701Z,99472.00
2023-03-17T19:22:18.921Z,99472.00
2023-03-17T19:24:48.116Z,99475.00
2023-03-17T19:27:16.490Z,99471.00
2023-03-17T19:29:44.231Z,99474.00
2023-03-17T19:32:12.278Z,99469.00
2023-03-17T19:34:39.950Z,99468.00
2023-03-17T19:37:07.835Z,99472.00
2023-03-17T19:39:36.932Z,99463.00
2023-03-17T19:42:04.534Z,99462.00
2023-03-17T19:44:32.242Z,99461.00
2023-03-17T19:47:05.248Z,99463.00
2023-03-17T19:49:34.766Z,99456.00
2023-03-17T19:52:03.505Z,99457.00
2023-03-17T19:54:31.349Z,99449.00
2023-03-17T19:56:59.001Z,99446.00
2023-03-17T19:59:26.923Z,99441.00
2023-03-17T20:01:54.729Z,99444.00
2023-03-17T20:04:23.321Z,99451.00
2023-03-17T20:06:55.690Z,99448.00
2023-03-17T20:09:24.886Z,99442.00
2023-03-17T20:11:53.478Z,99446.00
2023-03-17T20:14:21.317Z,99443.00
2023-03-17T20:16:49.221Z,99450.00
2023-03-17T20:19:17.223Z,99453.00
2023-03-17T20:21:45.036Z,99448.00
2023-03-17T20:24:13.159Z,99452.00
2023-03-17T20:26:41.864Z,99462.00
2023-03-17T20:29:12.873Z,99465.00
2023-03-17T20:31:40.709Z,99458.00
2023-03-17T20:34:08.810Z,99461.00
2023-03-17T20:36:37.262Z,99454.00
2023-03-17T20:39:05.052Z,99452.00
2023-03-17T20:41:32.710Z,99450.00
2023-03-17T20:44:00.517Z,99442.00
2023-03-17T20:46:28.958Z,99447.00
2023-03-17T20:48:59.090Z,99447.00
2023-03-17T20:51:27.017Z,99448.00
2023-03-17T20:53:55.377Z,99444.00
2023-03-17T20:56:23.855Z,99449.00
2023-03-17T20:58:53.445Z,99449.00
2023-03-17T21:01:21.728Z,99450.00
2023-03-17T21:03:50.128Z,99455.00
2023-03-17T21:06:18.641Z,99456.00
2023-03-17T21:08:46.701Z,99452.00
2023-03-17T21:11:18.439Z,99461.00
2023-03-17T21:13:46.754Z,99464.00
2023-03-17T21:16:19.229Z,99460.00
2023-03-17T21:18:47.336Z,99459.00
2023-03-17T21:21:15.296Z,99467.00
2023-03-17T21:23:48.676Z,99459.00
2023-03-17T21:26:16.424Z,99449.00
2023-03-17T21:28:44.207Z,99446.00
2023-03-17T21:31:12.638Z,99448.00
2023-03-17T21:33:40.737Z,99440.00
2023-03-17T21:36:08.726Z,99439.00
2023-03-17T21:38:36.495Z,99430.00
2023-03-17T21:41:43.680Z,99428.00
2023-03-17T21:44:13.502Z,99429.00
2023-03-17T21:46:41.626Z,99428.00
2023-03-17T21:49:09.305Z,99433.00
2023-03-17T21:51:37.001Z,99424.00
2023-03-17T21:54:05.590Z,99433.00
2023-03-17T21:56:33.842Z,99431.00
2023-03-17T21:59:01.517Z,99427.00
2023-03-17T22:01:29.560Z,99428.00
2023-03-17T22:03:57.296Z,99416.00
2023-03-17T22:06:26.382Z,99416.00
2023-03-17T22:08:54.315Z,99421.00
2023-03-17T22:11:22.063Z,99427.00
2023-03-17T22:13:49.960Z,99429.00
2023-03-17T22:16:18.688Z,99430.00
2023-03-17T22:18:47.712Z,99437.00
2023-03-17T22:21:15.774Z,99434.00
2023-03-17T22:23:44.918Z,99442.00
2023-03-17T22:26:13.764Z,99435.00
2023-03-17T22:28:41.795Z,99438.00
2023-03-17T22:31:12.506Z,99437.00
2023-03-17T22:33:40.173Z,99446.00
2023-03-17T22:36:07.949Z,99442.00
2023-03-17T22:38:35.953Z,99441.00
2023-03-17T22:41:05.457Z,99444.00
2023-03-17T22:43:33.111Z,99439.00
2023-03-17T22:46:00.882Z,99447.00
2023-03-17T22:48:28.624Z,99449.00
2023-03-17T22:50:56.410Z,99448.00
2023-03-17T22:53:24.237Z,99449.00
2023-03-17T22:55:52.091Z,99448.00
2023-03-17T22:58:19.756Z,99450.00
2023-03-17T23:00:48.834Z,99453.00
2023-03-17T23:03:17.797Z,99449.00
2023-03-17T23:05:49.995Z,99435.00
2023-03-17T23:08:19.139Z,99441.00
2023-03-17T23:10:50.284Z,99442.00
2023-03-17T23:13:19.099Z,99448.00
2023-03-17T23:15:47.545Z,99446.00
2023-03-17T23:18:15.703Z,99457.00
2023-03-17T23:20:43.582Z,99456.00
2023-03-17T23:23:11.913Z,99453.00
2023-03-17T23:25:39.605Z,99452.00
2023-03-17T23:28:07.823Z,99453.00
2023-03-17T23:30:36.006Z,99452.00
2023-03-17T23:33:05.159Z,99452.00
2023-03-17T23:35:33.580Z,99459.00
2023-03-17T23:38:02.566Z,99456.00
2023-03-17T23:40:33.193Z,99453.00
2023-03-17T23:43:01.162Z,99454.00
2023-03-17T23:45:28.909Z,99462.00
2023-03-17T23:47:57.696Z,99453.00
2023-03-17T23:50:25.361Z,99456.00
2023-03-17T23:52:54.428Z,99457.00
2023-03-17T23:55:22.258Z,99458.00
2023-03-17T23:57:50.508Z,99454.00
